createdAt,value
2023-01-29T00:00:38.069Z,2.05
2023-01-29T00:03:06.726Z,1.98
2023-01-29T00:05:35.414Z,1.28
2023-01-29T00:08:03.464Z,1.65
2023-01-29T00:10:32.010Z,1.67
2023-01-29T00:13:00.115Z,1.26
2023-01-29T00:15:28.140Z,1.44
2023-01-29T00:17:56.522Z,1.45
2023-01-29T00:20:24.543Z,1.30
2023-01-29T00:22:52.642Z,0.81
2023-01-29T00:25:21.086Z,1.39
2023-01-29T00:27:49.361Z,1.32
2023-01-29T00:30:20.118Z,1.31
2023-01-29T00:32:48.802Z,1.38
2023-01-29T00:35:16.882Z,1.45
2023-01-29T00:37:44.915Z,1.29
2023-01-29T00:40:13.922Z,1.35
2023-01-29T00:43:00.496Z,1.13
2023-01-29T00:45:29.042Z,1.22
2023-01-29T00:47:57.164Z,0.99
2023-01-29T00:50:25.274Z,1.82
2023-01-29T00:52:54.934Z,0.95
2023-01-29T00:55:23.051Z,1.11
2023-01-29T00:57:52.089Z,1.32
2023-01-29T01:00:21.099Z,1.23
2023-01-29T01:03:07.896Z,1.73
2023-01-29T01:05:37.220Z,1.57
2023-01-29T01:08:25.484Z,1.18
2023-01-29T01:11:00.316Z,1.26
2023-01-29T01:13:28.436Z,1.18
2023-01-29T01:15:58.292Z,0.85
2023-01-29T01:18:30.313Z,1.02
2023-01-29T01:20:59.131Z,1.55
2023-01-29T01:23:28.248Z,1.10
2023-01-29T01:25:56.539Z,1.32
2023-01-29T01:28:25.234Z,1.38
2023-01-29T01:30:53.415Z,1.39
2023-01-29T01:33:22.055Z,1.27
2023-01-29T01:35:50.544Z,1.12
2023-01-29T01:38:18.614Z,1.41
2023-01-29T01:40:47.201Z,1.35
2023-01-29T01:43:15.655Z,1.08
2023-01-29T01:45:46.922Z,0.92
2023-01-29T01:48:19.188Z,0.87
2023-01-29T01:51:00.956Z,1.06
2023-01-29T01:54:08.440Z,0.90
2023-01-29T01:56:41.182Z,1.30
2023-01-29T01:59:17.713Z,1.48
2023-01-29T02:01:52.414Z,1.38
2023-01-29T02:04:42.210Z,1.09
2023-01-29T02:07:32.464Z,0.96
2023-01-29T02:10:11.580Z,1.40
2023-01-29T02:12:40.899Z,1.40
2023-01-29T02:15:10.015Z,1.65
2023-01-29T02:17:38.873Z,1.59
2023-01-29T02:20:21.401Z,1.30
2023-01-29T02:22:56.420Z,0.92
2023-01-29T02:25:54.306Z,1.26
2023-01-29T02:28:26.261Z,1.05
2023-01-29T02:31:16.117Z,0.96
2023-01-29T02:33:59.633Z,1.11
2023-01-29T02:36:32.066Z,0.97
2023-01-29T02:39:22.280Z,1.02
2023-01-29T02:42:17.340Z,0.99
2023-01-29T02:44:53.422Z,0.98
2023-01-29T02:47:55.958Z,0.31
2023-01-29T02:50:35.205Z,0.64
2023-01-29T02:53:09.930Z,1.00
2023-01-29T02:55:45.443Z,0.46
2023-01-29T02:58:21.681Z,0.48
2023-01-29T03:00:49.895Z,0.99
2023-01-29T03:03:26.694Z,0.91
2023-01-29T03:06:18.493Z,0.94
2023-01-29T03:08:55.851Z,0.55
2023-01-29T03:11:23.660Z,0.61
2023-01-29T03:15:19.850Z,0.89
2023-01-29T03:18:02.254Z,0.61
2023-01-29T03:20:34.771Z,0.63
2023-01-29T03:23:11.048Z,0.42
2023-01-29T03:25:59.225Z,0.69
2023-01-29T03:28:48.670Z,0.83
2023-01-29T03:31:37.235Z,1.26
2023-01-29T03:34:24.324Z,0.76
2023-01-29T03:36:57.959Z,0.93
2023-01-29T03:39:28.699Z,1.07
2023-01-29T03:42:23.423Z,1.02
2023-01-29T03:45:01.217Z,1.03
2023-01-29T03:47:37.209Z,0.64
2023-01-29T03:50:17.924Z,1.04
2023-01-29T03:52:57.068Z,1.53
2023-01-29T03:55:42.626Z,1.32
2023-01-29T03:58:37.338Z,1.12
2023-01-29T04:01:13.140Z,0.82
2023-01-29T04:04:03.535Z,1.02
2023-01-29T04:06:34.834Z,1.44
2023-01-29T04:09:04.947Z,1.01
2023-01-29T04:11:34.452Z,1.17
2023-01-29T04:14:03.202Z,1.23
2023-01-29T04:16:36.969Z,0.84
2023-01-29T04:19:06.648Z,0.84
2023-01-29T04:21:37.901Z,1.24
2023-01-29T04:24:07.713Z,1.68
2023-01-29T04:26:46.767Z,1.40
2023-01-29T04:29:29.115Z,1.21
2023-01-29T04:32:13.794Z,1.21
2023-01-29T04:34:52.230Z,1.07
2023-01-29T04:37:59.731Z,1.13
2023-01-29T04:40:38.787Z,1.49
2023-01-29T04:43:15.344Z,1.42
2023-01-29T04:46:10.253Z,1.38
2023-01-29T04:48:44.852Z,1.19
2023-01-29T04:51:38.563Z,0.96
2023-01-29T04:54:17.111Z,0.94
2023-01-29T04:56:52.531Z,0.64
2023-01-29T04:59:30.559Z,1.13
2023-01-29T05:02:00.408Z,1.02
2023-01-29T05:04:32.613Z,0.97
2023-01-29T05:07:05.135Z,1.13
2023-01-29T05:09:34.684Z,1.16
2023-01-29T05:12:03.269Z,1.25
2023-01-29T05:14:34.432Z,1.55
2023-01-29T05:17:10.972Z,0.98
2023-01-29T05:19:39.220Z,1.31
2023-01-29T05:22:10.213Z,1.44
2023-01-29T05:24:38.836Z,1.21
2023-01-29T05:27:26.509Z,1.30
2023-01-29T05:29:55.825Z,1.39
2023-01-29T05:32:24.277Z,1.20
2023-01-29T05:34:52.303Z,1.43
2023-01-29T05:37:20.404Z,1.27
2023-01-29T05:39:48.843Z,1.31
2023-01-29T05:42:16.879Z,1.55
2023-01-29T05:44:44.966Z,1.11
2023-01-29T05:47:13.425Z,1.44
2023-01-29T05:49:41.505Z,1.59
2023-01-29T05:52:09.533Z,1.59
2023-01-29T05:54:38.043Z,1.57
2023-01-29T05:57:06.202Z,1.43
2023-01-29T05:59:34.390Z,1.72
2023-01-29T06:02:02.924Z,1.24
2023-01-29T06:04:31.500Z,1.89
2023-01-29T06:06:59.719Z,1.99
2023-01-29T06:09:27.742Z,1.61
2023-01-29T06:11:56.161Z,1.37
2023-01-29T06:14:24.309Z,1.49
2023-01-29T06:16:52.389Z,1.21
2023-01-29T06:19:21.011Z,0.96
2023-01-29T06:21:49.071Z,1.20
2023-01-29T06:24:17.359Z,1.04
2023-01-29T06:26:46.002Z,1.09
2023-01-29T06:29:15.990Z,1.41
2023-01-29T06:31:45.279Z,1.09
2023-01-29T06:34:14.221Z,0.48
2023-01-29T06:36:44.026Z,0.80
2023-01-29T06:39:13.722Z,1.04
2023-01-29T06:41:42.205Z,1.08
2023-01-29T06:44:10.230Z,0.85
2023-01-29T06:46:38.344Z,0.91
2023-01-29T06:49:06.811Z,0.62
2023-01-29T06:51:35.050Z,0.81
2023-01-29T06:54:03.265Z,0.31
2023-01-29T06:56:31.671Z,0.90
2023-01-29T06:59:00.374Z,0.70
2023-01-29T07:01:36.018Z,0.74
2023-01-29T07:04:05.240Z,0.46
2023-01-29T07:06:33.761Z,0.77
2023-01-29T07:09:02.107Z,0.94
2023-01-29T07:11:31.130Z,0.60
2023-01-29T07:13:59.238Z,0.62
2023-01-29T07:16:27.468Z,0.54
2023-01-29T07:18:56.118Z,0.65
2023-01-29T07:21:24.419Z,1.10
2023-01-29T07:23:52.741Z,1.10
2023-01-29T07:26:21.241Z,0.61
2023-01-29T07:28:49.271Z,0.96
2023-01-29T07:31:17.834Z,1.06
2023-01-29T07:33:46.582Z,0.87
2023-01-29T07:36:15.136Z,0.89
2023-01-29T07:38:43.289Z,0.57
2023-01-29T07:41:12.138Z,0.88
2023-01-29T07:43:40.288Z,0.75
2023-01-29T07:46:08.516Z,0.62
2023-01-29T07:48:38.082Z,0.75
2023-01-29T07:51:06.670Z,0.66
2023-01-29T07:53:34.945Z,0.94
2023-01-29T07:56:03.511Z,0.87
2023-01-29T07:58:32.769Z,1.24
2023-01-29T08:01:06.125Z,0.90
2023-01-29T08:03:35.023Z,1.18
2023-01-29T08:06:06.689Z,1.43
2023-01-29T08:08:35.373Z,1.04
2023-01-29T08:11:05.868Z,1.19
2023-01-29T08:13:34.344Z,1.22
2023-01-29T08:16:03.970Z,0.88
2023-01-29T08:18:32.244Z,1.05
2023-01-29T08:21:01.860Z,1.21
2023-01-29T08:23:30.335Z,1.00
2023-01-29T08:25:58.570Z,1.02
2023-01-29T08:28:27.189Z,1.06
2023-01-29T08:30:55.749Z,1.26
2023-01-29T08:33:37.975Z,1.46
2023-01-29T08:36:08.742Z,1.29
2023-01-29T08:38:37.120Z,1.27
2023-01-29T08:41:05.544Z,1.01
2023-01-29T08:43:37.253Z,0.99
2023-01-29T08:46:06.126Z,1.14
2023-01-29T08:48:39.732Z,1.11
2023-01-29T08:51:07.912Z,0.93
2023-01-29T08:53:36.762Z,1.18
2023-01-29T08:56:05.855Z,0.93
2023-01-29T08:58:33.955Z,1.03
2023-01-29T09:01:14.042Z,1.00
2023-01-29T09:03:46.491Z,0.95
2023-01-29T09:06:15.354Z,1.09
2023-01-29T09:08:46.912Z,0.90
2023-01-29T09:11:18.895Z,0.79
2023-01-29T09:13:46.968Z,1.08
2023-01-29T09:16:16.206Z,1.05
2023-01-29T09:18:44.654Z,1.05
2023-01-29T09:21:12.763Z,1.03
2023-01-29T09:23:41.244Z,0.80
2023-01-29T09:26:09.628Z,1.09
2023-01-29T09:28:37.923Z,1.01
2023-01-29T09:31:08.026Z,1.21
2023-01-29T09:33:36.210Z,1.23
2023-01-29T09:36:04.954Z,1.06
2023-01-29T09:38:33.533Z,1.17
2023-01-29T09:41:26.612Z,1.20
2023-01-29T09:44:04.492Z,1.37
2023-01-29T09:46:39.553Z,1.11
2023-01-29T09:49:15.064Z,1.11
2023-01-29T09:51:47.322Z,1.21
2023-01-29T09:54:30.314Z,1.17
2023-01-29T09:56:58.759Z,0.90
2023-01-29T09:59:28.463Z,1.21
2023-01-29T10:02:01.080Z,1.12
2023-01-29T10:04:45.829Z,1.05
2023-01-29T10:07:26.188Z,0.82
2023-01-29T10:10:35.845Z,0.98
2023-01-29T10:13:08.402Z,0.70
2023-01-29T10:15:47.053Z,1.08
2023-01-29T10:18:38.560Z,0.84
2023-01-29T10:21:28.195Z,1.00
2023-01-29T10:24:27.556Z,0.89
2023-01-29T10:26:56.507Z,0.74
2023-01-29T10:29:25.982Z,1.05
2023-01-29T10:32:05.067Z,0.71
2023-01-29T10:35:01.049Z,1.12
2023-01-29T10:37:41.563Z,1.07
2023-01-29T10:40:13.392Z,1.13
2023-01-29T10:42:56.562Z,0.99
2023-01-29T10:45:32.657Z,0.98
2023-01-29T10:48:20.692Z,1.01
2023-01-29T10:51:26.748Z,0.66
2023-01-29T10:54:17.618Z,1.04
2023-01-29T10:56:52.364Z,0.68
2023-01-29T10:59:40.400Z,0.96
2023-01-29T11:02:18.154Z,1.44
2023-01-29T11:04:46.662Z,1.24
2023-01-29T11:07:18.809Z,1.11
2023-01-29T11:10:08.628Z,1.06
2023-01-29T11:12:39.135Z,1.11
2023-01-29T11:15:18.575Z,1.14
2023-01-29T11:18:15.837Z,1.57
2023-01-29T11:20:45.145Z,0.89
2023-01-29T11:23:27.829Z,1.40
2023-01-29T11:25:58.089Z,1.15
2023-01-29T11:28:41.041Z,1.54
2023-01-29T11:31:36.336Z,1.59
2023-01-29T11:34:13.884Z,1.88
2023-01-29T11:36:42.093Z,1.69
2023-01-29T11:39:22.148Z,2.01
2023-01-29T11:41:53.477Z,2.38
2023-01-29T11:44:27.211Z,2.88
2023-01-29T11:46:57.170Z,2.98
2023-01-29T11:49:34.886Z,2.94
2023-01-29T11:52:06.616Z,3.94
2023-01-29T11:54:39.165Z,4.90
2023-01-29T11:57:35.950Z,6.34
2023-01-29T12:00:20.839Z,6.71
2023-01-29T12:03:13.454Z,7.95
2023-01-29T12:05:54.119Z,8.08
2023-01-29T12:08:23.782Z,8.33
2023-01-29T12:10:51.934Z,8.16
2023-01-29T12:13:29.505Z,6.55
2023-01-29T12:16:39.199Z,5.24
2023-01-29T12:19:15.414Z,4.02
2023-01-29T12:21:46.382Z,2.43
2023-01-29T12:24:49.386Z,3.60
2023-01-29T12:28:07.226Z,4.42
2023-01-29T12:30:56.031Z,5.16
2023-01-29T12:33:53.605Z,4.70
2023-01-29T12:36:30.793Z,4.36
2023-01-29T12:38:59.963Z,4.07
2023-01-29T12:41:34.344Z,4.42
2023-01-29T12:44:23.139Z,4.15
2023-01-29T12:46:55.137Z,4.24
2023-01-29T12:49:27.214Z,4.23
2023-01-29T12:52:07.626Z,3.97
2023-01-29T12:54:42.027Z,3.72
2023-01-29T12:57:40.682Z,2.91
2023-01-29T13:00:34.813Z,2.26
2023-01-29T13:03:09.061Z,2.33
2023-01-29T13:05:59.289Z,2.61
2023-01-29T13:08:31.463Z,2.75
2023-01-29T13:11:02.961Z,2.91
2023-01-29T13:13:36.616Z,1.96
2023-01-29T13:16:10.484Z,2.97
2023-01-29T13:18:58.150Z,2.82
2023-01-29T13:21:39.388Z,2.97
2023-01-29T13:24:17.156Z,3.05
2023-01-29T13:26:49.457Z,2.78
2023-01-29T13:29:33.953Z,3.07
2023-01-29T13:32:05.902Z,2.45
2023-01-29T13:34:37.231Z,2.56
2023-01-29T13:37:11.923Z,2.76
2023-01-29T13:39:47.193Z,2.93
2023-01-29T13:42:33.804Z,2.35
2023-01-29T13:45:04.256Z,2.40
2023-01-29T13:47:38.107Z,2.32
2023-01-29T13:50:25.914Z,2.42
2023-01-29T13:52:57.307Z,2.46
2023-01-29T13:55:31.926Z,2.03
2023-01-29T13:58:02.114Z,2.33
2023-01-29T14:00:35.862Z,2.80
2023-01-29T14:03:13.162Z,2.17
2023-01-29T14:05:43.181Z,2.78
2023-01-29T14:08:13.968Z,2.33
2023-01-29T14:10:43.573Z,2.27
2023-01-29T14:13:18.530Z,2.66
2023-01-29T14:15:54.843Z,2.45
2023-01-29T14:18:26.012Z,2.18
2023-01-29T14:21:01.194Z,2.30
2023-01-29T14:23:37.202Z,2.04
2023-01-29T14:26:06.846Z,2.07
2023-01-29T14:28:35.658Z,1.68
2023-01-29T14:31:04.245Z,1.78
2023-01-29T14:33:39.797Z,1.48
2023-01-29T14:36:19.031Z,1.01
2023-01-29T14:38:51.085Z,1.13
2023-01-29T14:41:36.822Z,1.04
2023-01-29T14:44:56.201Z,0.86
2023-01-29T14:47:27.456Z,0.80
2023-01-29T14:49:57.974Z,-0.03
2023-01-29T14:52:47.352Z,-0.17
2023-01-29T14:55:46.585Z,-0.05
2023-01-29T14:58:18.594Z,0.09
2023-01-29T15:00:51.602Z,0.20
2023-01-29T15:03:32.850Z,0.08
2023-01-29T15:06:01.594Z,0.46
2023-01-29T15:08:38.043Z,0.22
2023-01-29T15:11:45.511Z,0.14
2023-01-29T15:14:24.241Z,0.08
2023-01-29T15:17:23.702Z,0.01
2023-01-29T15:19:52.391Z,0.29
2023-01-29T15:22:29.382Z,-0.13
2023-01-29T15:25:15.439Z,-0.07
2023-01-29T15:27:45.191Z,-0.34
2023-01-29T15:30:18.510Z,-0.07
2023-01-29T15:32:47.488Z,-0.60
2023-01-29T15:35:19.362Z,-0.29
2023-01-29T15:37:59.895Z,-0.73
2023-01-29T15:40:28.526Z,-0.29
2023-01-29T15:42:56.650Z,-0.10
2023-01-29T15:45:31.387Z,-0.36
2023-01-29T15:48:04.474Z,-0.33
2023-01-29T15:50:36.433Z,-0.54
2023-01-29T15:53:08.263Z,-0.40
2023-01-29T15:55:36.479Z,-0.47
2023-01-29T15:58:05.177Z,-0.57
2023-01-29T16:00:33.442Z,-0.66
2023-01-29T16:03:14.181Z,-0.64
2023-01-29T16:05:42.700Z,-0.88
2023-01-29T16:08:15.612Z,-0.88
2023-01-29T16:10:45.385Z,-0.83
2023-01-29T16:13:22.862Z,-0.46
2023-01-29T16:16:04.860Z,-0.29
2023-01-29T16:18:37.494Z,-0.18
2023-01-29T16:21:28.451Z,-0.31
2023-01-29T16:24:22.577Z,-0.63
2023-01-29T16:26:52.604Z,-0.84
2023-01-29T16:29:23.917Z,-0.60
2023-01-29T16:31:54.650Z,-0.61
2023-01-29T16:34:26.528Z,-0.62
2023-01-29T16:36:55.626Z,-1.01
2023-01-29T16:39:43.990Z,-1.12
2023-01-29T16:42:20.762Z,-0.68
2023-01-29T16:45:15.404Z,-0.08
2023-01-29T16:47:43.793Z,-0.26
2023-01-29T16:50:18.162Z,-0.53
2023-01-29T16:53:11.860Z,-0.57
2023-01-29T16:55:49.781Z,-0.13
2023-01-29T16:58:20.654Z,-0.29
2023-01-29T17:00:55.523Z,-0.62
2023-01-29T17:03:26.306Z,-0.57
2023-01-29T17:05:54.960Z,-0.71
2023-01-29T17:08:34.361Z,-0.91
2023-01-29T17:11:03.198Z,-0.79
2023-01-29T17:13:44.836Z,-0.93
2023-01-29T17:16:24.180Z,-0.97
2023-01-29T17:18:52.479Z,-0.76
2023-01-29T17:21:20.971Z,-0.92
2023-01-29T17:23:49.097Z,-0.73
2023-01-29T17:26:17.568Z,-1.22
2023-01-29T17:28:46.457Z,-1.16
2023-01-29T17:31:14.535Z,-1.45
2023-01-29T17:33:44.156Z,-1.34
2023-01-29T17:36:15.176Z,-1.48
2023-01-29T17:38:43.434Z,-0.80
2023-01-29T17:41:20.343Z,-0.69
2023-01-29T17:43:49.179Z,-1.94
2023-01-29T17:46:18.103Z,-1.67
2023-01-29T17:48:46.580Z,-1.45
2023-01-29T17:51:17.019Z,-1.38
2023-01-29T17:53:46.803Z,-1.36
2023-01-29T17:56:33.762Z,-1.24
2023-01-29T17:59:02.223Z,-1.26
2023-01-29T18:01:30.677Z,-1.11
2023-01-29T18:03:59.323Z,-0.94
2023-01-29T18:06:29.183Z,-1.22
2023-01-29T18:08:57.331Z,-1.50
2023-01-29T18:11:26.210Z,-1.23
2023-01-29T18:13:54.914Z,-1.57
2023-01-29T18:16:23.650Z,-1.47
2023-01-29T18:18:52.572Z,-1.25
2023-01-29T18:21:20.633Z,-1.34
2023-01-29T18:23:48.646Z,-1.24
2023-01-29T18:26:17.692Z,-0.83
2023-01-29T18:28:45.896Z,-0.74
2023-01-29T18:31:14.584Z,-0.70
2023-01-29T18:33:43.312Z,-0.98
2023-01-29T18:36:11.397Z,-1.47
2023-01-29T18:38:39.744Z,-1.26
2023-01-29T18:41:12.604Z,-1.28
2023-01-29T18:43:42.014Z,-1.14
2023-01-29T18:46:11.017Z,-1.35
2023-01-29T18:48:41.576Z,-1.13
2023-01-29T18:51:10.799Z,-1.20
2023-01-29T18:53:38.886Z,-1.23
2023-01-29T18:56:07.741Z,-1.25
2023-01-29T18:58:37.165Z,-1.55
2023-01-29T19:01:12.161Z,-1.17
2023-01-29T19:03:43.426Z,-1.33
2023-01-29T19:06:12.262Z,-1.39
2023-01-29T19:08:41.507Z,-1.42
2023-01-29T19:11:10.029Z,-1.39
2023-01-29T19:13:38.436Z,-1.42
2023-01-29T19:16:09.320Z,-1.44
2023-01-29T19:18:37.855Z,-1.63
2023-01-29T19:21:07.948Z,-1.35
2023-01-29T19:23:36.112Z,-1.36
2023-01-29T19:26:04.542Z,-1.43
2023-01-29T19:28:33.312Z,-1.59
2023-01-29T19:31:01.528Z,-2.21
2023-01-29T19:33:29.749Z,-1.74
2023-01-29T19:35:59.629Z,-1.57
2023-01-29T19:38:28.060Z,-1.75
2023-01-29T19:40:56.141Z,-1.79
2023-01-29T19:43:24.613Z,-2.03
2023-01-29T19:45:58.753Z,-2.23
2023-01-29T19:48:28.420Z,-2.30
2023-01-29T19:51:01.819Z,-2.16
2023-01-29T19:53:31.253Z,-2.22
2023-01-29T19:56:11.089Z,-2.23
2023-01-29T19:58:39.887Z,-2.11
2023-01-29T20:01:17.217Z,-2.64
2023-01-29T20:03:49.451Z,-2.22
2023-01-29T20:06:20.484Z,-1.68
2023-01-29T20:08:49.359Z,-2.55
2023-01-29T20:11:19.470Z,-1.98
2023-01-29T20:13:49.714Z,-1.68
2023-01-29T20:16:19.415Z,-1.81
2023-01-29T20:18:48.498Z,-2.10
2023-01-29T20:21:20.734Z,-2.03
2023-01-29T20:23:50.568Z,-2.46
2023-01-29T20:26:19.314Z,-1.70
2023-01-29T20:28:48.913Z,-1.82
2023-01-29T20:31:17.832Z,-1.41
2023-01-29T20:33:45.966Z,-1.40
2023-01-29T20:36:15.035Z,-2.11
2023-01-29T20:38:43.543Z,-2.59
2023-01-29T20:41:16.868Z,-1.92
2023-01-29T20:43:46.302Z,-1.91
2023-01-29T20:46:14.807Z,-1.59
2023-01-29T20:48:42.907Z,-1.99
2023-01-29T20:51:16.890Z,-1.74
2023-01-29T20:53:46.637Z,-1.97
2023-01-29T20:56:16.502Z,-1.81
2023-01-29T20:58:47.124Z,-1.65
2023-01-29T21:01:18.595Z,-0.98
2023-01-29T21:03:47.394Z,-2.13
2023-01-29T21:06:16.426Z,-2.32
2023-01-29T21:08:44.563Z,-2.13
2023-01-29T21:11:12.752Z,-1.87
2023-01-29T21:13:41.323Z,-2.19
2023-01-29T21:16:11.034Z,-2.05
2023-01-29T21:18:39.398Z,-1.87
2023-01-29T21:21:07.890Z,-1.59
2023-01-29T21:23:35.967Z,-1.35
2023-01-29T21:26:05.211Z,-1.72
2023-01-29T21:28:34.031Z,-1.94
2023-01-29T21:31:07.134Z,-1.82
2023-01-29T21:33:35.853Z,-2.32
2023-01-29T21:36:05.056Z,-2.09
2023-01-29T21:38:33.542Z,-1.83
2023-01-29T21:41:04.743Z,-2.30
2023-01-29T21:43:33.386Z,-1.97
2023-01-29T21:46:06.240Z,-1.82
2023-01-29T21:48:34.382Z,-1.49
2023-01-29T21:51:03.031Z,-1.39
2023-01-29T21:53:31.527Z,-2.44
2023-01-29T21:56:01.367Z,-1.80
2023-01-29T21:58:30.224Z,-1.34
2023-01-29T22:01:36.976Z,-2.56
2023-01-29T22:03:48.228Z,-2.09
2023-01-29T22:06:16.297Z,-1.72
2023-01-29T22:08:44.343Z,-1.97
2023-01-29T22:11:13.157Z,-2.02
2023-01-29T22:13:42.031Z,-2.64
2023-01-29T22:16:10.181Z,-2.54
2023-01-29T22:18:38.720Z,-2.55
2023-01-29T22:21:06.877Z,-2.45
2023-01-29T22:23:34.965Z,-3.26
2023-01-29T22:26:04.697Z,-3.03
2023-01-29T22:28:32.900Z,-2.91
2023-01-29T22:31:02.516Z,-2.64
2023-01-29T22:33:31.564Z,-2.49
2023-01-29T22:35:59.679Z,-2.21
2023-01-29T22:38:27.755Z,-2.23
2023-01-29T22:40:57.098Z,-2.07
2023-01-29T22:43:28.031Z,-1.79
2023-01-29T22:45:59.378Z,-2.08
2023-01-29T22:48:28.782Z,-1.89
2023-01-29T22:51:10.200Z,-1.59
2023-01-29T22:53:44.305Z,-2.13
2023-01-29T22:56:12.815Z,-1.72
2023-01-29T22:58:44.312Z,-1.94
2023-01-29T23:01:12.892Z,-2.03
2023-01-29T23:03:40.941Z,-2.06
2023-01-29T23:06:09.056Z,-1.84
2023-01-29T23:08:37.573Z,-2.03
2023-01-29T23:11:17.859Z,-1.93
2023-01-29T23:13:52.340Z,-1.52
2023-01-29T23:16:25.790Z,-2.00
2023-01-29T23:18:56.158Z,-1.79
2023-01-29T23:21:25.327Z,-1.88
2023-01-29T23:23:55.536Z,-1.95
2023-01-29T23:26:42.980Z,-1.97
2023-01-29T23:29:11.314Z,-1.80
2023-01-29T23:31:39.994Z,-1.96
2023-01-29T23:34:08.109Z,-1.72
2023-01-29T23:36:36.174Z,-2.33
2023-01-29T23:39:04.835Z,-1.94
2023-01-29T23:41:32.991Z,-2.04
2023-01-29T23:44:01.092Z,-1.79
2023-01-29T23:46:29.719Z,-2.14
2023-01-29T23:48:57.897Z,-2.03
2023-01-29T23:51:26.502Z,-2.50
2023-01-29T23:53:54.933Z,-2.65
2023-01-29T23:56:23.013Z,-2.19
2023-01-29T23:58:55.190Z,-2.05
